Amavisti — V2CR5 — position and weather

sailwx.info

Track history (hours):
 
Tides and Currents Weather Stations Pressure Air Temp Water Temp Dewpoint Dewpoint Depression Visibility Wind Speed Wind Dir Waves Ship Positions

Amavisti

Last reported at 2014-Nov-27 07:31 UTC. Time now 2014-Dec-21 03:21 UTC.
Position N 36°48' W 026°43'.
Warning: this ship's position is 23 days out of date.

Length 116 m; draft 5.6 m.

Type: Cargo ship. MMSI: 305086000.

Date/timePositionNaut miles runAvg speedWind from/ knotsBaromVisibWave heightAir tempDewpointWater temp
2014-Nov-27 07:31N 36°48' W 026°43'6 6.0
2014-Nov-27 06:33N 36°51' W 026°37'7 6.6
2014-Nov-27 05:34N 36°54' W 026°29'7 6.9
2014-Nov-27 04:33N 36°57' W 026°22'8 7.6
2014-Nov-27 03:34N 37°01' W 026°13'8 8.2
2014-Nov-27 02:34N 37°04' W 026°04'9 8.9
2014-Nov-27 01:34N 37°09' W 025°54'9 8.7
2014-Nov-27 00:34N 37°13' W 025°45'9 9.4
2014-Nov-26 23:34N 37°17' W 025°34'10 9.5
2014-Nov-26 22:34N 37°21' W 025°23'9 9.4
2014-Nov-26 21:34N 37°25' W 025°13'10 9.7
2014-Nov-26 20:34N 37°29' W 025°02'10 9.7
2014-Nov-26 19:34N 37°35' W 024°52'1010.0
2014-Nov-26 18:34N 37°41' W 024°42'10 9.7
2014-Nov-26 17:34N 37°47' W 024°32'10 9.8
2014-Nov-26 16:33N 37°54' W 024°23'10 9.8
2014-Nov-26 15:33N 37°60' W 024°13'10 9.9
2014-Nov-26 14:33N 38°06' W 024°04'  
2014-Nov-21 10:19N 50°34' E 000°09'810.7
2014-Nov-21 09:33N 50°36' E 000°21'10 9.9
2014-Nov-21 08:33N 50°40' E 000°36'1010.1
2014-Nov-21 07:34N 50°45' E 000°49'1111.3
2014-Nov-21 06:33N 50°52' E 001°04'1313.0
2014-Nov-21 05:32N 51°00' E 001°20'1313.5
2014-Nov-21 04:33N 51°07' E 001°38'1110.6
2014-Nov-21 03:33N 51°02' E 001°53'1212.1
2014-Nov-21 02:33N 51°03' E 002°12'6 5.2
2014-Nov-21 01:28N 51°03' E 002°21'0 0.2
2014-Nov-20 23:29N 51°03' E 002°21'0 0.0
2014-Nov-20 22:26N 51°03' E 002°21'0 0.0
2014-Nov-20 21:26N 51°03' E 002°21'0 0.0
2014-Nov-20 20:22N 51°03' E 002°21'0 0.0
2014-Nov-20 19:18N 51°03' E 002°21'0 0.0
2014-Nov-20 18:31N 51°03' E 002°21'0 0.0
2014-Nov-20 17:33N 51°03' E 002°21'0 0.0
2014-Nov-20 16:33N 51°03' E 002°21'0 0.0
2014-Nov-20 15:22N 51°03' E 002°21'0 0.0
2014-Nov-20 14:33N 51°03' E 002°21'1 0.7
2014-Nov-20 13:33N 51°03' E 002°20'15 6.9
2014-Nov-20 11:23N 51°02' E 001°56'7 6.7
2014-Nov-20 10:23N 51°02' E 001°46'1011.4
2014-Nov-20 09:34N 50°57' E 001°33'1312.3
2014-Nov-20 08:31N 50°45' E 001°24'  
Track history (hours):
 
Tides and Currents Weather Stations Pressure Air Temp Water Temp Dewpoint Dewpoint Depression Visibility Wind Speed Wind Dir Waves Ship Positions

Amavisti

Last reported at 2014-Nov-27 07:31 UTC. Time now 2014-Dec-21 03:21 UTC.
Position N 36°48' W 026°43'.
Warning: this ship's position is 23 days out of date.

Length 116 m; draft 5.6 m.

Type: Cargo ship. MMSI: 305086000.

Date/timePositionNaut miles runAvg speedWind from/ knotsBaromVisibWave heightAir tempDewpointWater temp
2014-Nov-27 07:31N 36°48' W 026°43'6 6.0
2014-Nov-27 06:33N 36°51' W 026°37'7 6.6
2014-Nov-27 05:34N 36°54' W 026°29'7 6.9
2014-Nov-27 04:33N 36°57' W 026°22'8 7.6
2014-Nov-27 03:34N 37°01' W 026°13'8 8.2
2014-Nov-27 02:34N 37°04' W 026°04'9 8.9
2014-Nov-27 01:34N 37°09' W 025°54'9 8.7
2014-Nov-27 00:34N 37°13' W 025°45'9 9.4
2014-Nov-26 23:34N 37°17' W 025°34'10 9.5
2014-Nov-26 22:34N 37°21' W 025°23'9 9.4
2014-Nov-26 21:34N 37°25' W 025°13'10 9.7
2014-Nov-26 20:34N 37°29' W 025°02'10 9.7
2014-Nov-26 19:34N 37°35' W 024°52'1010.0
2014-Nov-26 18:34N 37°41' W 024°42'10 9.7
2014-Nov-26 17:34N 37°47' W 024°32'10 9.8
2014-Nov-26 16:33N 37°54' W 024°23'10 9.8
2014-Nov-26 15:33N 37°60' W 024°13'10 9.9
2014-Nov-26 14:33N 38°06' W 024°04'  
2014-Nov-21 10:19N 50°34' E 000°09'810.7
2014-Nov-21 09:33N 50°36' E 000°21'10 9.9
2014-Nov-21 08:33N 50°40' E 000°36'1010.1
2014-Nov-21 07:34N 50°45' E 000°49'1111.3
2014-Nov-21 06:33N 50°52' E 001°04'1313.0
2014-Nov-21 05:32N 51°00' E 001°20'1313.5
2014-Nov-21 04:33N 51°07' E 001°38'1110.6
2014-Nov-21 03:33N 51°02' E 001°53'1212.1
2014-Nov-21 02:33N 51°03' E 002°12'6 5.2
2014-Nov-21 01:28N 51°03' E 002°21'0 0.2
2014-Nov-20 23:29N 51°03' E 002°21'0 0.0
2014-Nov-20 22:26N 51°03' E 002°21'0 0.0
2014-Nov-20 21:26N 51°03' E 002°21'0 0.0
2014-Nov-20 20:22N 51°03' E 002°21'0 0.0
2014-Nov-20 19:18N 51°03' E 002°21'0 0.0
2014-Nov-20 18:31N 51°03' E 002°21'0 0.0
2014-Nov-20 17:33N 51°03' E 002°21'0 0.0
2014-Nov-20 16:33N 51°03' E 002°21'0 0.0
2014-Nov-20 15:22N 51°03' E 002°21'0 0.0
2014-Nov-20 14:33N 51°03' E 002°21'1 0.7
2014-Nov-20 13:33N 51°03' E 002°20'15 6.9
2014-Nov-20 11:23N 51°02' E 001°56'7 6.7
2014-Nov-20 10:23N 51°02' E 001°46'1011.4
2014-Nov-20 09:34N 50°57' E 001°33'1312.3
2014-Nov-20 08:31N 50°45' E 001°24'  

Dump ship's entire track history